Time;durP1;ratioP1;P1;durP2;ratioP2;P2;SDS_P1;SDS_P2;PMS_P1;PMS_P2;Temp;Humidity;BMP_temperature;BMP_pressure;BME280_temperature;BME280_humidity;BME280_pressure;Samples;Min_cycle;Max_cycle;Signal;HPM_P1;HPM_P2
2022/10/28 00:00:21;;;;;;;;;;;20.20;75.00;;;;;;5075671;28;19925;-62
2022/10/28 00:02:46;;;;;;;;;;;20.20;75.00;;;;;;5074976;28;19963;-62
2022/10/28 00:05:12;;;;;;;;;;;20.20;75.00;;;;;;5075594;28;19932;-62
2022/10/28 00:07:37;;;;;;;;;;;20.20;75.00;;;;;;5075447;28;20023;-62
2022/10/28 00:10:03;;;;;;;;;;;20.20;75.00;;;;;;5075076;28;20360;-62
2022/10/28 00:12:28;;;;;;;;;;;20.20;74.90;;;;;;5075188;28;19924;-62
2022/10/28 00:14:54;;;;;;;;;;;20.20;74.90;;;;;;5075639;28;19925;-62
2022/10/28 00:17:19;;;;;;;;;;;20.20;75.00;;;;;;5074889;28;19924;-61
2022/10/28 00:19:45;;;;;;;;;;;20.20;75.00;;;;;;5075344;28;19928;-62
2022/10/28 00:22:10;;;;;;;;;;;20.20;74.90;;;;;;5074103;28;20327;-62
2022/10/28 00:24:36;;;;;;;;;;;20.20;74.90;;;;;;5073651;28;20022;-62
2022/10/28 00:27:01;;;;;;;;;;;20.20;74.90;;;;;;5074607;28;20364;-62
2022/10/28 00:29:27;;;;;;;;;;;20.20;74.90;;;;;;5075058;28;19929;-62
2022/10/28 00:31:52;;;;;;;;;;;20.10;74.80;;;;;;5074363;28;19970;-62
2022/10/28 00:34:18;;;;;;;;;;;20.20;74.90;;;;;;5074035;28;19928;-62
2022/10/28 00:36:44;;;;;;;;;;;20.10;74.80;;;;;;5075148;28;19931;-62
2022/10/28 00:39:27;;;;;;;;;;;20.10;74.80;;;;;;5074033;28;19932;-61
2022/10/28 00:41:57;;;;;;;;;;;20.10;74.80;;;;;;5074973;28;19924;-62
2022/10/28 00:44:41;;;;;;;;;;;20.10;74.90;;;;;;5074138;28;19929;-62
2022/10/28 00:47:17;;;;;;;;;;;20.10;74.90;;;;;;5074472;28;19924;-62
2022/10/28 00:49:44;;;;;;;;;;;20.10;74.80;;;;;;5074872;28;20372;-62
2022/10/28 00:52:11;;;;;;;;;;;20.20;74.90;;;;;;5072660;28;20396;-62
2022/10/28 00:54:36;;;;;;;;;;;20.10;74.80;;;;;;5073770;28;19924;-61
2022/10/28 00:57:02;;;;;;;;;;;20.10;74.80;;;;;;5074961;28;20300;-61
2022/10/28 00:59:35;;;;;;;;;;;20.10;74.70;;;;;;5073629;28;19951;-62
2022/10/28 01:02:00;;;;;;;;;;;20.10;74.70;;;;;;5073116;28;19986;-62
2022/10/28 01:04:26;;;;;;;;;;;20.10;74.80;;;;;;5074701;28;19932;-62
2022/10/28 01:06:51;;;;;;;;;;;20.10;74.70;;;;;;5072877;28;19931;-62
2022/10/28 01:09:17;;;;;;;;;;;20.10;74.80;;;;;;5073064;28;19925;-61
2022/10/28 01:11:49;;;;;;;;;;;20.10;74.70;;;;;;5074389;28;19925;-62
2022/10/28 01:14:30;;;;;;;;;;;20.10;74.80;;;;;;5073399;28;19924;-62
2022/10/28 01:17:15;;;;;;;;;;;20.10;74.70;;;;;;5073109;28;20019;-62
2022/10/28 01:19:59;;;;;;;;;;;20.10;74.70;;;;;;5074016;28;19928;-62
2022/10/28 01:22:25;;;;;;;;;;;20.10;74.80;;;;;;5076793;28;19963;-62
2022/10/28 01:24:57;;;;;;;;;;;20.10;74.80;;;;;;5073286;28;19971;-62
2022/10/28 01:27:35;;;;;;;;;;;20.10;74.70;;;;;;5063989;28;19979;-61
2022/10/28 01:30:02;;;;;;;;;;;20.10;74.70;;;;;;5074140;28;19960;-61
2022/10/28 01:32:48;;;;;;;;;;;20.10;74.70;;;;;;5072688;28;19934;-62
2022/10/28 01:35:32;;;;;;;;;;;20.10;74.70;;;;;;5064467;28;20424;-62
2022/10/28 01:38:03;;;;;;;;;;;20.10;74.70;;;;;;5072713;28;20023;-61
2022/10/28 01:40:55;;;;;;;;;;;20.10;74.70;;;;;;5072718;28;19928;-61
2022/10/28 01:43:28;;;;;;;;;;;20.10;74.70;;;;;;5070163;28;19985;-62
2022/10/28 01:45:56;;;;;;;;;;;20.10;74.60;;;;;;5073508;28;20281;-61
2022/10/28 01:48:24;;;;;;;;;;;20.10;74.70;;;;;;5071665;28;19931;-61
2022/10/28 01:50:52;;;;;;;;;;;20.10;74.70;;;;;;5072315;28;19932;-61
2022/10/28 01:53:18;;;;;;;;;;;20.00;74.60;;;;;;5073276;28;19929;-62
2022/10/28 01:55:45;;;;;;;;;;;20.00;74.60;;;;;;5071849;28;19921;-62
2022/10/28 01:58:11;;;;;;;;;;;20.10;74.60;;;;;;5071862;28;19924;-61
2022/10/28 02:00:36;;;;;;;;;;;20.00;74.60;;;;;;5068217;28;20364;-61
2022/10/28 02:03:02;;;;;;;;;;;20.00;74.50;;;;;;5068347;28;19928;-61
2022/10/28 02:05:40;;;;;;;;;;;20.00;74.50;;;;;;5052645;28;20020;-61
2022/10/28 02:08:14;;;;;;;;;;;20.00;74.60;;;;;;5053385;28;19958;-62
2022/10/28 02:10:41;;;;;;;;;;;20.00;74.50;;;;;;5052744;28;19925;-61
2022/10/28 02:13:07;;;;;;;;;;;20.00;74.60;;;;;;5068448;28;20465;-62
2022/10/28 02:15:39;;;;;;;;;;;20.00;74.50;;;;;;5052331;28;19925;-62
2022/10/28 02:18:05;;;;;;;;;;;20.00;74.60;;;;;;5053339;28;19970;-62
2022/10/28 02:20:35;;;;;;;;;;;20.00;74.50;;;;;;5053295;28;19925;-62
2022/10/28 02:23:10;;;;;;;;;;;20.00;74.50;;;;;;5068000;28;19924;-62
2022/10/28 02:25:44;;;;;;;;;;;20.00;74.50;;;;;;5072056;28;19924;-62
2022/10/28 02:28:11;;;;;;;;;;;20.00;74.50;;;;;;5071880;28;19974;-62
2022/10/28 02:30:59;;;;;;;;;;;20.00;74.50;;;;;;5069976;28;19925;-62
2022/10/28 02:33:25;;;;;;;;;;;20.00;74.40;;;;;;5071581;28;19931;-62
2022/10/28 02:36:08;;;;;;;;;;;20.00;74.50;;;;;;5071675;28;19925;-62
2022/10/28 02:38:43;;;;;;;;;;;20.00;74.50;;;;;;5071309;28;20021;-62
2022/10/28 02:41:15;;;;;;;;;;;20.00;74.50;;;;;;5071305;28;20290;-62
2022/10/28 02:43:41;;;;;;;;;;;20.00;74.50;;;;;;5070914;28;19935;-62
2022/10/28 02:46:06;;;;;;;;;;;20.00;74.60;;;;;;5071245;28;19925;-62
2022/10/28 02:48:34;;;;;;;;;;;20.00;74.50;;;;;;5073108;28;19978;-62
2022/10/28 02:51:00;;;;;;;;;;;20.00;74.50;;;;;;5071054;28;19971;-62
2022/10/28 02:53:28;;;;;;;;;;;20.00;74.40;;;;;;5072448;28;19982;-62
2022/10/28 02:55:54;;;;;;;;;;;20.00;74.50;;;;;;5071847;28;19964;-62
2022/10/28 02:58:19;;;;;;;;;;;20.00;74.50;;;;;;5076453;28;19972;-61
2022/10/28 03:00:45;;;;;;;;;;;20.00;74.50;;;;;;5079411;28;19947;-61
2022/10/28 03:03:10;;;;;;;;;;;19.90;74.40;;;;;;5078823;28;19921;-62
2022/10/28 03:05:35;;;;;;;;;;;20.00;74.40;;;;;;5078731;28;19971;-62
2022/10/28 03:08:01;;;;;;;;;;;20.00;74.50;;;;;;5079295;28;20015;-62
2022/10/28 03:10:26;;;;;;;;;;;19.90;74.40;;;;;;5078948;28;19928;-62
2022/10/28 03:12:52;;;;;;;;;;;19.90;74.40;;;;;;5078501;28;20356;-62
2022/10/28 03:15:17;;;;;;;;;;;19.90;74.40;;;;;;5079057;28;19935;-62
2022/10/28 03:17:43;;;;;;;;;;;20.00;74.40;;;;;;5079072;28;19970;-62
2022/10/28 03:20:09;;;;;;;;;;;19.90;74.30;;;;;;5078307;28;19932;-62
2022/10/28 03:22:34;;;;;;;;;;;19.90;74.40;;;;;;5079598;28;19924;-62
2022/10/28 03:25:00;;;;;;;;;;;19.90;74.40;;;;;;5079377;28;19929;-62
2022/10/28 03:27:25;;;;;;;;;;;19.90;74.40;;;;;;5077997;28;19928;-62
2022/10/28 03:29:51;;;;;;;;;;;19.90;74.40;;;;;;5079174;28;20287;-62
2022/10/28 03:32:16;;;;;;;;;;;19.90;74.40;;;;;;5079076;28;19924;-62
2022/10/28 03:34:41;;;;;;;;;;;19.90;74.40;;;;;;5078707;28;20042;-62
2022/10/28 03:37:07;;;;;;;;;;;19.90;74.40;;;;;;5079261;28;19924;-61
2022/10/28 03:39:32;;;;;;;;;;;19.90;74.40;;;;;;5079140;28;19924;-62
2022/10/28 03:41:58;;;;;;;;;;;19.90;74.40;;;;;;5078229;28;20342;-62
2022/10/28 03:44:23;;;;;;;;;;;19.90;74.40;;;;;;5078798;28;19925;-62
2022/10/28 03:46:49;;;;;;;;;;;19.90;74.40;;;;;;5078319;28;19929;-62
2022/10/28 03:49:16;;;;;;;;;;;19.90;74.30;;;;;;5078198;28;20408;-62
2022/10/28 03:51:42;;;;;;;;;;;19.90;74.40;;;;;;5077504;28;20032;-62
2022/10/28 03:54:07;;;;;;;;;;;19.90;74.40;;;;;;5078077;28;20308;-62
2022/10/28 03:56:33;;;;;;;;;;;19.90;74.40;;;;;;5079169;28;19932;-61
2022/10/28 03:58:58;;;;;;;;;;;19.90;74.40;;;;;;5079113;28;20299;-62
2022/10/28 04:01:23;;;;;;;;;;;19.90;74.40;;;;;;5071341;28;19925;-61
2022/10/28 04:03:49;;;;;;;;;;;19.90;74.40;;;;;;5059216;28;20391;-61
2022/10/28 04:06:15;;;;;;;;;;;19.90;74.30;;;;;;5058137;28;19932;-62
2022/10/28 04:08:41;;;;;;;;;;;19.90;74.30;;;;;;5055249;28;20042;-62
2022/10/28 04:11:06;;;;;;;;;;;19.90;74.20;;;;;;5055056;28;19939;-62
2022/10/28 04:13:32;;;;;;;;;;;19.90;74.20;;;;;;5055671;28;19925;-61
2022/10/28 04:15:57;;;;;;;;;;;19.90;74.20;;;;;;5054896;28;20127;-62
2022/10/28 04:18:23;;;;;;;;;;;19.90;74.20;;;;;;5055413;28;19925;-62
2022/10/28 04:20:48;;;;;;;;;;;19.90;74.20;;;;;;5055537;28;19929;-62
2022/10/28 04:23:14;;;;;;;;;;;19.90;74.10;;;;;;5054368;28;20039;-62
2022/10/28 04:25:40;;;;;;;;;;;19.90;74.10;;;;;;5055537;28;19928;-62
2022/10/28 04:28:05;;;;;;;;;;;19.90;74.10;;;;;;5055287;28;19925;-62
2022/10/28 04:30:31;;;;;;;;;;;19.90;74.10;;;;;;5054484;28;19932;-62
2022/10/28 04:32:56;;;;;;;;;;;19.90;74.10;;;;;;5055340;28;19925;-62
2022/10/28 04:35:22;;;;;;;;;;;19.90;74.20;;;;;;5054724;28;19968;-62
2022/10/28 04:37:47;;;;;;;;;;;19.90;74.20;;;;;;5054086;28;20284;-62
2022/10/28 04:40:13;;;;;;;;;;;19.90;74.20;;;;;;5054706;28;19947;-62
2022/10/28 04:42:38;;;;;;;;;;;19.90;74.20;;;;;;5055099;28;19936;-62
2022/10/28 04:45:04;;;;;;;;;;;19.90;74.20;;;;;;5054246;28;19925;-61
2022/10/28 04:47:29;;;;;;;;;;;19.90;74.20;;;;;;5054742;28;19973;-62
2022/10/28 04:49:55;;;;;;;;;;;19.90;74.20;;;;;;5055020;28;20368;-62
2022/10/28 04:52:20;;;;;;;;;;;19.90;74.20;;;;;;5053744;28;20038;-61
2022/10/28 04:54:46;;;;;;;;;;;20.00;74.30;;;;;;5055004;28;19931;-62
2022/10/28 04:57:11;;;;;;;;;;;19.90;74.20;;;;;;5053738;28;20019;-62
2022/10/28 04:59:37;;;;;;;;;;;20.00;74.30;;;;;;5054849;28;20015;-62
2022/10/28 05:02:02;;;;;;;;;;;20.00;74.30;;;;;;5066613;28;20265;-62
2022/10/28 05:04:28;;;;;;;;;;;20.00;74.20;;;;;;5074243;28;19928;-62
2022/10/28 05:06:53;;;;;;;;;;;20.00;74.20;;;;;;5074800;28;20030;-62
2022/10/28 05:09:19;;;;;;;;;;;20.00;74.20;;;;;;5074462;28;20347;-62
2022/10/28 05:11:44;;;;;;;;;;;20.00;74.20;;;;;;5073699;28;19971;-62
2022/10/28 05:14:10;;;;;;;;;;;20.00;74.20;;;;;;5073159;28;19924;-62
2022/10/28 05:16:35;;;;;;;;;;;20.00;74.20;;;;;;5074464;28;19924;-63
2022/10/28 05:19:01;;;;;;;;;;;20.00;74.20;;;;;;5073898;28;19982;-62
2022/10/28 05:21:26;;;;;;;;;;;20.00;74.20;;;;;;5073758;28;20007;-62
2022/10/28 05:23:51;;;;;;;;;;;20.10;74.20;;;;;;5074161;28;19924;-62
2022/10/28 05:26:17;;;;;;;;;;;20.10;74.20;;;;;;5073082;28;20433;-62
2022/10/28 05:28:42;;;;;;;;;;;20.10;74.20;;;;;;5074407;28;19944;-62
2022/10/28 05:31:08;;;;;;;;;;;20.10;74.20;;;;;;5073719;28;19975;-63
2022/10/28 05:33:34;;;;;;;;;;;20.10;74.20;;;;;;5073353;28;19932;-62
2022/10/28 05:35:59;;;;;;;;;;;20.10;74.10;;;;;;5074235;28;19924;-63
2022/10/28 05:38:25;;;;;;;;;;;20.10;74.10;;;;;;5073872;28;20019;-62
2022/10/28 05:40:50;;;;;;;;;;;20.10;74.10;;;;;;5072020;28;20296;-63
2022/10/28 05:43:16;;;;;;;;;;;20.10;74.10;;;;;;5073683;28;19960;-62
2022/10/28 05:45:41;;;;;;;;;;;20.10;74.10;;;;;;5073692;28;20323;-62
2022/10/28 05:48:07;;;;;;;;;;;20.10;74.10;;;;;;5073243;28;19946;-63
2022/10/28 05:50:32;;;;;;;;;;;20.10;74.10;;;;;;5072340;28;20356;-62
2022/10/28 05:52:58;;;;;;;;;;;20.10;74.10;;;;;;5072896;28;19974;-62
2022/10/28 05:55:26;;;;;;;;;;;20.10;74.10;;;;;;5072393;28;19924;-61
2022/10/28 05:57:51;;;;;;;;;;;20.10;74.10;;;;;;5073574;28;20007;-62
2022/10/28 06:00:18;;;;;;;;;;;20.10;74.10;;;;;;5072974;28;20031;-62
2022/10/28 06:02:44;;;;;;;;;;;20.10;74.10;;;;;;5072852;28;19947;-62
2022/10/28 06:05:09;;;;;;;;;;;20.10;74.10;;;;;;5073125;28;20300;-62
2022/10/28 06:07:35;;;;;;;;;;;20.10;74.10;;;;;;5072743;28;20339;-62
2022/10/28 06:10:01;;;;;;;;;;;20.10;74.10;;;;;;5073231;28;20400;-62
2022/10/28 06:12:26;;;;;;;;;;;20.10;74.10;;;;;;5072995;28;20445;-62
2022/10/28 06:14:52;;;;;;;;;;;20.10;74.10;;;;;;5072770;28;20427;-62
2022/10/28 06:17:17;;;;;;;;;;;20.10;74.10;;;;;;5072878;28;19920;-62
2022/10/28 06:19:43;;;;;;;;;;;20.10;74.10;;;;;;5073346;28;19928;-62
2022/10/28 06:22:08;;;;;;;;;;;20.10;74.10;;;;;;5072111;28;20406;-62
2022/10/28 06:24:34;;;;;;;;;;;20.10;74.10;;;;;;5073323;28;19924;-62
2022/10/28 06:26:59;;;;;;;;;;;20.10;74.10;;;;;;5073171;28;19928;-62
2022/10/28 06:29:25;;;;;;;;;;;20.10;74.10;;;;;;5071850;28;19931;-62
2022/10/28 06:31:51;;;;;;;;;;;20.10;74.00;;;;;;5072301;28;19947;-62
2022/10/28 06:34:16;;;;;;;;;;;20.10;74.10;;;;;;5072971;28;19978;-62
2022/10/28 06:36:42;;;;;;;;;;;20.10;74.10;;;;;;5072404;28;20007;-62
2022/10/28 06:39:07;;;;;;;;;;;20.20;74.10;;;;;;5072800;28;19924;-62
2022/10/28 06:41:33;;;;;;;;;;;20.10;74.10;;;;;;5072575;28;20365;-60
2022/10/28 06:43:58;;;;;;;;;;;20.20;74.10;;;;;;5072120;28;19932;-62
2022/10/28 06:46:24;;;;;;;;;;;20.10;74.20;;;;;;5072085;28;19971;-62
2022/10/28 06:48:49;;;;;;;;;;;20.10;74.20;;;;;;5071313;28;19926;-62
2022/10/28 06:51:16;;;;;;;;;;;20.20;74.30;;;;;;5071776;28;20006;-61
2022/10/28 06:53:41;;;;;;;;;;;20.20;74.30;;;;;;5072734;28;20415;-61
2022/10/28 06:56:07;;;;;;;;;;;20.20;74.20;;;;;;5072737;28;19928;-61
2022/10/28 06:58:33;;;;;;;;;;;20.20;74.30;;;;;;5072223;28;19925;-61
2022/10/28 07:01:01;;;;;;;;;;;20.20;74.30;;;;;;5072755;28;19974;-62
2022/10/28 07:03:27;;;;;;;;;;;20.20;75.00;;;;;;5072583;28;19936;-61
2022/10/28 07:05:52;;;;;;;;;;;20.10;74.20;;;;;;5072224;28;19925;-61
2022/10/28 07:08:18;;;;;;;;;;;20.20;74.30;;;;;;5069577;28;19951;-62
2022/10/28 07:10:44;;;;;;;;;;;20.20;74.30;;;;;;5072695;28;19935;-62
2022/10/28 07:13:09;;;;;;;;;;;20.20;74.30;;;;;;5071597;28;20372;-62
2022/10/28 07:15:34;;;;;;;;;;;20.20;74.30;;;;;;5072591;28;19931;-62
2022/10/28 07:18:01;;;;;;;;;;;20.20;74.40;;;;;;5072030;28;20276;-62
2022/10/28 07:20:27;;;;;;;;;;;20.20;74.50;;;;;;5072355;28;20023;-62
2022/10/28 07:22:59;;;;;;;;;;;20.20;74.50;;;;;;5072390;28;20007;-62
2022/10/28 07:25:25;;;;;;;;;;;20.20;74.50;;;;;;5070871;28;20453;-62
2022/10/28 07:27:50;;;;;;;;;;;20.20;74.50;;;;;;5072611;28;19951;-62
2022/10/28 07:30:16;;;;;;;;;;;20.20;74.50;;;;;;5071803;28;19971;-62
2022/10/28 07:32:41;;;;;;;;;;;20.20;74.50;;;;;;5071262;28;19924;-62
2022/10/28 07:35:07;;;;;;;;;;;20.20;74.50;;;;;;5072340;28;19931;-62
2022/10/28 07:37:32;;;;;;;;;;;20.20;74.50;;;;;;5072222;28;20379;-62
2022/10/28 07:39:58;;;;;;;;;;;20.20;74.50;;;;;;5071338;28;19969;-63
2022/10/28 07:42:23;;;;;;;;;;;20.20;74.50;;;;;;5072181;28;20015;-63
2022/10/28 07:44:49;;;;;;;;;;;20.20;74.60;;;;;;5074515;28;19974;-62
2022/10/28 07:47:16;;;;;;;;;;;20.20;74.60;;;;;;5074574;28;20296;-62
2022/10/28 07:49:42;;;;;;;;;;;20.30;74.60;;;;;;5076125;28;19928;-62
2022/10/28 07:52:08;;;;;;;;;;;20.30;74.70;;;;;;5075652;28;20287;-62
2022/10/28 07:54:33;;;;;;;;;;;20.30;74.60;;;;;;5075032;28;20470;-62
2022/10/28 07:56:58;;;;;;;;;;;20.30;74.60;;;;;;5075823;28;19935;-62
2022/10/28 07:59:24;;;;;;;;;;;20.30;74.60;;;;;;5075618;28;19959;-62
2022/10/28 08:01:50;;;;;;;;;;;20.30;74.70;;;;;;5074981;28;19947;-62
2022/10/28 08:04:15;;;;;;;;;;;20.30;74.60;;;;;;5074494;28;19920;-61
2022/10/28 08:06:41;;;;;;;;;;;20.30;74.70;;;;;;5074989;28;19985;-61
2022/10/28 08:09:06;;;;;;;;;;;20.30;74.60;;;;;;5074056;28;19925;-61
2022/10/28 08:11:32;;;;;;;;;;;20.30;74.70;;;;;;5075866;28;19924;-61
2022/10/28 08:13:57;;;;;;;;;;;20.40;74.70;;;;;;5074797;28;20360;-61
2022/10/28 08:16:23;;;;;;;;;;;20.40;74.70;;;;;;5074583;28;19924;-61
2022/10/28 08:18:48;;;;;;;;;;;20.40;74.70;;;;;;5075812;28;20423;-61
2022/10/28 08:21:14;;;;;;;;;;;20.40;74.70;;;;;;5074737;28;19925;-61
2022/10/28 08:23:40;;;;;;;;;;;20.40;74.60;;;;;;5075348;28;19924;-61
2022/10/28 08:26:05;;;;;;;;;;;20.50;74.70;;;;;;5075476;28;19931;-61
2022/10/28 08:28:31;;;;;;;;;;;20.40;74.70;;;;;;5074642;28;20337;-61
2022/10/28 08:31:01;;;;;;;;;;;20.50;74.60;;;;;;5107831;28;19930;-60
2022/10/28 08:33:26;;;;;;;;;;;20.50;74.60;;;;;;5073804;28;20023;-60
2022/10/28 08:35:51;;;;;;;;;;;20.50;74.50;;;;;;5074456;28;20015;-60
2022/10/28 08:38:17;;;;;;;;;;;20.50;74.50;;;;;;5075102;28;19977;-60
2022/10/28 08:41:01;;;;;;;;;;;20.60;74.60;;;;;;5075201;28;20003;-60
2022/10/28 08:43:34;;;;;;;;;;;20.60;74.50;;;;;;5074368;28;19990;-61
2022/10/28 08:46:18;;;;;;;;;;;20.60;74.40;;;;;;5073725;28;19976;-60
2022/10/28 08:48:44;;;;;;;;;;;20.60;74.40;;;;;;5073723;28;19924;-61
2022/10/28 08:51:11;;;;;;;;;;;20.60;74.40;;;;;;5073738;28;19924;-61
2022/10/28 08:53:38;;;;;;;;;;;20.60;74.50;;;;;;5075148;28;19947;-61
2022/10/28 08:56:13;;;;;;;;;;;20.60;74.60;;;;;;5072956;28;19924;-60
2022/10/28 08:58:38;;;;;;;;;;;20.60;74.60;;;;;;5073003;28;19926;-60
2022/10/28 09:01:04;;;;;;;;;;;20.60;74.60;;;;;;5073257;28;19924;-62
2022/10/28 09:03:29;;;;;;;;;;;20.60;74.70;;;;;;5073921;28;19925;-61
2022/10/28 09:05:58;;;;;;;;;;;20.60;74.70;;;;;;5057321;28;19931;-61
2022/10/28 09:08:24;;;;;;;;;;;20.70;74.80;;;;;;5074292;28;19925;-61
2022/10/28 09:10:53;;;;;;;;;;;20.70;74.70;;;;;;5073896;28;19928;-60
2022/10/28 09:13:22;;;;;;;;;;;20.70;74.70;;;;;;5074274;28;20425;-60
2022/10/28 09:15:57;;;;;;;;;;;20.70;74.80;;;;;;5073252;28;19920;-60
2022/10/28 09:18:46;;;;;;;;;;;20.70;74.80;;;;;;5073611;28;19924;-60
2022/10/28 09:21:19;;;;;;;;;;;20.70;74.80;;;;;;5073167;28;19929;-60
2022/10/28 09:23:54;;;;;;;;;;;20.70;74.70;;;;;;5074454;28;19924;-61
2022/10/28 09:26:20;;;;;;;;;;;20.70;74.70;;;;;;5072325;28;19929;-61
2022/10/28 09:29:03;;;;;;;;;;;20.80;74.80;;;;;;5074384;28;20335;-61
2022/10/28 09:31:36;;;;;;;;;;;20.70;74.60;;;;;;5073014;28;19925;-61
2022/10/28 09:34:22;;;;;;;;;;;20.80;74.70;;;;;;5074373;28;19929;-61
2022/10/28 09:36:50;;;;;;;;;;;20.80;74.80;;;;;;5056198;28;20384;-62
2022/10/28 09:39:17;;;;;;;;;;;20.80;74.80;;;;;;5071663;28;20303;-61
2022/10/28 09:41:42;;;;;;;;;;;20.80;74.90;;;;;;5072497;28;20356;-62
2022/10/28 09:44:23;;;;;;;;;;;20.80;74.90;;;;;;5065671;28;20014;-61
2022/10/28 09:46:50;;;;;;;;;;;20.70;74.90;;;;;;5067384;28;20003;-61
2022/10/28 09:49:17;;;;;;;;;;;20.80;74.90;;;;;;5064455;28;19932;-61
2022/10/28 09:51:49;;;;;;;;;;;20.80;74.90;;;;;;5054941;28;19931;-62
2022/10/28 09:54:15;;;;;;;;;;;20.80;75.00;;;;;;5054294;28;19924;-61
2022/10/28 09:56:40;;;;;;;;;;;20.80;75.00;;;;;;5072608;28;19920;-61
2022/10/28 09:59:06;;;;;;;;;;;20.80;75.00;;;;;;5060493;28;20007;-61
2022/10/28 10:01:32;;;;;;;;;;;20.80;75.00;;;;;;5068276;28;19994;-61
2022/10/28 10:03:58;;;;;;;;;;;20.80;75.00;;;;;;5053852;28;19924;-61
2022/10/28 10:06:28;;;;;;;;;;;20.80;75.00;;;;;;5066505;28;20334;-61
2022/10/28 10:08:54;;;;;;;;;;;20.80;75.00;;;;;;5044165;28;19921;-61
2022/10/28 10:11:23;;;;;;;;;;;20.80;75.00;;;;;;5072606;28;19932;-62
2022/10/28 10:13:49;;;;;;;;;;;20.80;75.10;;;;;;5054468;28;19956;-61
2022/10/28 10:16:23;;;;;;;;;;;20.70;75.00;;;;;;5054704;28;20386;-61
2022/10/28 10:18:50;;;;;;;;;;;20.70;75.00;;;;;;5073143;28;19928;-60
2022/10/28 10:21:18;;;;;;;;;;;20.70;75.10;;;;;;5071861;28;19924;-61
2022/10/28 10:23:44;;;;;;;;;;;20.70;74.90;;;;;;5072302;28;20284;-61
2022/10/28 10:26:13;;;;;;;;;;;20.70;74.90;;;;;;5071832;28;20391;-61
2022/10/28 10:28:41;;;;;;;;;;;20.70;74.90;;;;;;5070450;28;19932;-61
2022/10/28 10:31:07;;;;;;;;;;;20.70;74.80;;;;;;5071326;28;19924;-61
2022/10/28 10:33:36;;;;;;;;;;;20.70;74.80;;;;;;5072044;28;19930;-61
2022/10/28 10:36:08;;;;;;;;;;;20.70;74.90;;;;;;5071537;28;19931;-61
2022/10/28 10:38:33;;;;;;;;;;;20.70;74.80;;;;;;5073323;28;20088;-61
2022/10/28 10:40:59;;;;;;;;;;;20.70;74.80;;;;;;5072787;28;19950;-61
2022/10/28 10:43:31;;;;;;;;;;;20.70;74.80;;;;;;5071313;28;19929;-61
2022/10/28 10:45:57;;;;;;;;;;;20.70;74.80;;;;;;5072992;28;19931;-61
2022/10/28 10:48:22;;;;;;;;;;;20.70;74.90;;;;;;5072760;28;19925;-61
2022/10/28 10:50:48;;;;;;;;;;;20.70;74.80;;;;;;5072265;28;19921;-61
2022/10/28 10:53:17;;;;;;;;;;;20.70;74.70;;;;;;5072626;28;19931;-61
2022/10/28 10:55:43;;;;;;;;;;;20.70;74.80;;;;;;5072403;28;20303;-61
2022/10/28 10:58:19;;;;;;;;;;;20.70;74.80;;;;;;5087123;28;20383;-61
2022/10/28 11:00:46;;;;;;;;;;;20.70;74.80;;;;;;5088650;28;19928;-61
2022/10/28 11:03:16;;;;;;;;;;;20.70;74.80;;;;;;5087520;28;19982;-61
2022/10/28 11:05:48;;;;;;;;;;;20.70;74.80;;;;;;5072974;28;20386;-61
2022/10/28 11:08:21;;;;;;;;;;;20.70;74.80;;;;;;5061238;28;19931;-62
2022/10/28 11:10:47;;;;;;;;;;;20.70;74.80;;;;;;5052833;28;20350;-62
2022/10/28 11:13:24;;;;;;;;;;;20.70;74.90;;;;;;5051979;28;19924;-62
2022/10/28 11:16:03;;;;;;;;;;;20.70;74.90;;;;;;5070635;28;20019;-63
2022/10/28 11:18:37;;;;;;;;;;;20.70;75.00;;;;;;5072454;28;20372;-62
2022/10/28 11:21:03;;;;;;;;;;;20.70;75.00;;;;;;5076560;28;19955;-62
2022/10/28 11:23:41;;;;;;;;;;;20.70;75.00;;;;;;5076127;28;20474;-61
2022/10/28 11:26:06;;;;;;;;;;;20.70;75.00;;;;;;5057721;28;20011;-62
2022/10/28 11:28:38;;;;;;;;;;;20.70;74.90;;;;;;5057512;28;20011;-61
2022/10/28 11:31:06;;;;;;;;;;;20.70;75.00;;;;;;5075380;28;20376;-61
2022/10/28 11:33:35;;;;;;;;;;;20.70;74.90;;;;;;5075063;28;20038;-62
2022/10/28 11:36:12;;;;;;;;;;;20.70;74.80;;;;;;5058204;28;20399;-61
2022/10/28 11:38:48;;;;;;;;;;;20.70;74.80;;;;;;5075768;28;19931;-61
2022/10/28 11:41:20;;;;;;;;;;;20.70;74.70;;;;;;5075901;28;19981;-61
2022/10/28 11:43:53;;;;;;;;;;;20.70;74.70;;;;;;5058666;28;19928;-61
2022/10/28 11:46:30;;;;;;;;;;;20.70;74.70;;;;;;5057544;28;19931;-61
2022/10/28 11:49:14;;;;;;;;;;;20.70;74.70;;;;;;5076220;28;19924;-61
2022/10/28 11:51:43;;;;;;;;;;;20.70;74.70;;;;;;5076286;28;19928;-61
2022/10/28 11:54:11;;;;;;;;;;;20.70;74.80;;;;;;5075093;28;19924;-61
2022/10/28 11:56:37;;;;;;;;;;;20.70;74.80;;;;;;5076287;28;19925;-61
2022/10/28 11:59:11;;;;;;;;;;;20.70;74.80;;;;;;5076244;28;20338;-61
2022/10/28 12:01:43;;;;;;;;;;;20.70;74.70;;;;;;5075001;28;19993;-61
2022/10/28 12:04:19;;;;;;;;;;;20.70;74.80;;;;;;5075799;28;19964;-61
2022/10/28 12:07:04;;;;;;;;;;;20.70;74.70;;;;;;5073930;28;19942;-62
2022/10/28 12:09:32;;;;;;;;;;;20.70;74.70;;;;;;5075618;28;20007;-61
2022/10/28 12:12:16;;;;;;;;;;;20.70;74.80;;;;;;5075042;28;19932;-62
2022/10/28 12:14:41;;;;;;;;;;;20.70;74.70;;;;;;5075104;28;19924;-61
2022/10/28 12:17:26;;;;;;;;;;;20.70;74.80;;;;;;5075223;28;20303;-61
2022/10/28 12:19:55;;;;;;;;;;;20.70;74.70;;;;;;5075944;28;19932;-61
2022/10/28 12:22:50;;;;;;;;;;;20.70;74.70;;;;;;5056845;28;19925;-61
2022/10/28 12:25:17;;;;;;;;;;;20.70;74.80;;;;;;5057818;28;19924;-61
2022/10/28 12:27:43;;;;;;;;;;;20.70;74.80;;;;;;5057071;28;19979;-61
2022/10/28 12:30:19;;;;;;;;;;;20.70;74.80;;;;;;5056305;28;20002;-61
2022/10/28 12:32:45;;;;;;;;;;;20.70;74.80;;;;;;5075416;28;19969;-61
2022/10/28 12:35:18;;;;;;;;;;;20.70;74.80;;;;;;5039700;28;19924;-61
2022/10/28 12:37:48;;;;;;;;;;;20.70;74.80;;;;;;5074255;28;19924;-61
2022/10/28 12:40:23;;;;;;;;;;;20.70;74.80;;;;;;5073493;28;20303;-61
2022/10/28 12:42:50;;;;;;;;;;;20.70;74.80;;;;;;5072980;28;19924;-61
2022/10/28 12:45:16;;;;;;;;;;;20.70;74.80;;;;;;5075070;28;19931;-61
2022/10/28 12:47:47;;;;;;;;;;;20.70;74.70;;;;;;5085725;28;19925;-61
2022/10/28 12:50:21;;;;;;;;;;;20.70;74.80;;;;;;5052254;28;19932;-61
2022/10/28 12:53:02;;;;;;;;;;;20.70;74.80;;;;;;5072683;28;20402;-62
2022/10/28 12:55:38;;;;;;;;;;;20.70;74.80;;;;;;5072600;28;19984;-62
2022/10/28 12:58:06;;;;;;;;;;;20.70;74.90;;;;;;5072535;28;20004;-61
2022/10/28 13:00:33;;;;;;;;;;;20.70;75.00;;;;;;5073772;28;19963;-61
2022/10/28 13:02:59;;;;;;;;;;;20.80;75.00;;;;;;5056180;28;19931;-62
2022/10/28 13:05:26;;;;;;;;;;;20.70;75.00;;;;;;5074429;28;20371;-62
2022/10/28 13:07:59;;;;;;;;;;;20.70;75.00;;;;;;5056969;28;19924;-62
2022/10/28 13:10:28;;;;;;;;;;;20.80;75.00;;;;;;5051172;28;20308;-62
2022/10/28 13:13:06;;;;;;;;;;;20.70;75.00;;;;;;5053281;28;19925;-62
2022/10/28 13:15:31;;;;;;;;;;;20.70;74.90;;;;;;5053570;28;19924;-62
2022/10/28 13:18:03;;;;;;;;;;;20.70;74.90;;;;;;5053804;28;19921;-61
2022/10/28 13:20:40;;;;;;;;;;;20.70;74.90;;;;;;5054528;28;19929;-62
2022/10/28 13:23:20;;;;;;;;;;;20.70;74.90;;;;;;5054082;28;20300;-62
2022/10/28 13:25:55;;;;;;;;;;;20.70;74.90;;;;;;5053966;28;19973;-62
2022/10/28 13:28:20;;;;;;;;;;;20.70;74.90;;;;;;5055591;28;19928;-62
2022/10/28 13:30:58;;;;;;;;;;;20.70;74.80;;;;;;5057107;28;19925;-62
2022/10/28 13:33:25;;;;;;;;;;;20.70;74.90;;;;;;5067955;28;19925;-62
2022/10/28 13:35:50;;;;;;;;;;;20.70;74.90;;;;;;5072984;28;19928;-62
2022/10/28 13:38:18;;;;;;;;;;;20.70;74.80;;;;;;5072180;28;19930;-62
2022/10/28 13:40:46;;;;;;;;;;;20.70;74.80;;;;;;5073948;28;19931;-62
2022/10/28 13:43:18;;;;;;;;;;;20.70;74.80;;;;;;5073835;28;19924;-62
2022/10/28 13:45:54;;;;;;;;;;;20.70;74.80;;;;;;5073166;28;20303;-62
2022/10/28 13:48:28;;;;;;;;;;;20.80;74.80;;;;;;5046516;28;19924;-62
2022/10/28 13:51:06;;;;;;;;;;;20.80;74.80;;;;;;5073730;28;19972;-62
2022/10/28 13:53:35;;;;;;;;;;;20.80;75.00;;;;;;5072445;28;19924;-62
2022/10/28 13:56:01;;;;;;;;;;;20.80;75.00;;;;;;5065374;28;19937;-62
2022/10/28 13:58:26;;;;;;;;;;;20.80;75.50;;;;;;5054512;28;19940;-62
2022/10/28 14:00:53;;;;;;;;;;;20.80;75.00;;;;;;5072526;28;20342;-62
2022/10/28 14:03:19;;;;;;;;;;;20.80;75.00;;;;;;5055495;28;19925;-62
2022/10/28 14:05:44;;;;;;;;;;;20.80;75.00;;;;;;5073303;28;19947;-63
2022/10/28 14:08:22;;;;;;;;;;;20.80;75.00;;;;;;5072783;28;20315;-63
2022/10/28 14:11:13;;;;;;;;;;;20.80;75.00;;;;;;5073601;28;20360;-63
2022/10/28 14:13:49;;;;;;;;;;;20.80;75.00;;;;;;5067817;28;19925;-63
2022/10/28 14:16:33;;;;;;;;;;;20.80;75.00;;;;;;5067958;28;19924;-63
2022/10/28 14:19:00;;;;;;;;;;;20.80;75.00;;;;;;5073502;28;20027;-65
2022/10/28 14:21:44;;;;;;;;;;;20.80;75.10;;;;;;5072315;28;20023;-62
2022/10/28 14:24:10;;;;;;;;;;;20.80;75.10;;;;;;5074760;28;20006;-62